Bondville, Illinois
Current Conditions -  °F | °C
As of 8:53 PM on Friday 28 Nov 2014 (Local Time) from KCMI Reporting Station
Clear Clear  
Wind Chill: 24°   Ceiling: Unl
Heat Index: 34°   Visibility: 9mi
Dew Point: 30°   Wind: 15mph
Humidity: 85%   Direction: 170°S
Pressure: 29.95"   Gusts: NA
Location:  40.11°N, 88.37°W
Report Text: KCMI 290253Z 17013KT 9SM CLR 01/M01 A2995 RMK AO2 SLP149 T00111011 58019 $
Loading
Personal Weather Stations






























Interactive Weather Map New forecast layout! Learn more

10-Day Weather Forecast

Advertisements
Track Severe Weather on mobile